Time;durP1;ratioP1;P1;durP2;ratioP2;P2;SDS_P1;SDS_P2;PMS_P1;PMS_P2;Temp;Humidity;BMP_temperature;BMP_pressure;BME280_temperature;BME280_humidity;BME280_pressure;Samples;Min_cycle;Max_cycle;Signal;HPM_P1;HPM_P2
2021/11/11 00:02:34;;;;;;;68.78;43.15;;;;;;;3.84;83.24;101099.64;2876106;82;21069;-77
2021/11/11 00:06:35;;;;;;;61.25;41.18;;;;;;;3.89;83.25;101099.91;2876407;82;21522;-78
2021/11/11 00:10:39;;;;;;;88.52;56.50;;;;;;;3.83;83.66;101104.52;2876329;82;21025;-76
2021/11/11 00:14:41;;;;;;;71.95;44.55;;;;;;;3.80;83.04;101103.77;2875997;82;21534;-77
2021/11/11 00:18:42;;;;;;;66.72;46.00;;;;;;;3.79;82.88;101114.77;2876400;82;21339;-79
2021/11/11 00:22:45;;;;;;;75.62;43.35;;;;;;;3.78;82.90;101105.17;2876286;82;21080;-77
2021/11/11 00:26:48;;;;;;;66.30;46.05;;;;;;;3.75;83.23;101101.80;2876246;82;21046;-76
2021/11/11 00:30:50;;;;;;;67.87;43.15;;;;;;;3.77;83.19;101104.77;2876022;82;21034;-78
2021/11/11 00:34:52;;;;;;;67.37;43.63;;;;;;;3.82;83.05;101103.25;2876110;82;20958;-78
2021/11/11 00:38:53;;;;;;;66.77;41.98;;;;;;;3.69;82.56;101111.66;2874857;82;21030;-76
2021/11/11 00:42:55;;;;;;;70.25;44.50;;;;;;;3.53;83.40;101103.48;2874902;81;21101;-78
2021/11/11 00:46:57;;;;;;;71.45;47.13;;;;;;;3.41;84.53;101103.98;2875032;82;21312;-78
2021/11/11 00:50:59;;;;;;;73.22;48.00;;;;;;;3.30;85.30;101103.09;2874384;82;21076;-78
2021/11/11 00:55:02;;;;;;;70.80;45.17;;;;;;;3.30;85.50;101107.03;2869043;82;21133;-79
2021/11/11 00:59:04;;;;;;;74.20;48.85;;;;;;;3.31;86.33;101108.74;2831927;82;21002;-71
2021/11/11 01:03:08;;;;;;;105.20;57.43;;;;;;;3.43;86.74;101110.05;2863722;82;20974;-72
2021/11/11 01:07:10;;;;;;;104.67;60.92;;;;;;;3.40;88.58;101103.59;2864074;82;21108;-75
2021/11/11 01:11:12;;;;;;;95.55;59.90;;;;;;;3.46;87.83;101110.39;2873061;83;21759;-74
2021/11/11 01:15:18;;;;;;;97.12;59.77;;;;;;;3.56;87.29;101096.82;2873114;83;20971;-78
2021/11/11 01:19:21;;;;;;;85.85;49.30;;;;;;;3.66;86.05;101090.73;2873362;83;21054;-75
2021/11/11 01:23:23;;;;;;;60.28;43.13;;;;;;;3.75;84.67;101091.27;2872649;83;21113;-80
2021/11/11 01:27:24;;;;;;;63.30;45.45;;;;;;;3.83;84.37;101083.91;2873122;83;21030;-78
2021/11/11 01:31:26;;;;;;;56.28;40.23;;;;;;;3.80;83.28;101084.91;2873346;83;21065;-77
2021/11/11 01:35:28;;;;;;;76.87;48.48;;;;;;;3.83;83.69;101083.45;2873413;83;21034;-78
2021/11/11 01:39:29;;;;;;;55.83;39.73;;;;;;;3.93;83.47;101074.72;2866574;83;21030;-75
2021/11/11 01:43:31;;;;;;;61.75;39.05;;;;;;;3.99;82.79;101078.88;2859250;82;21054;-69
2021/11/11 01:47:33;;;;;;;62.85;38.40;;;;;;;4.03;82.26;101074.33;2841298;83;21034;-78
2021/11/11 01:51:34;;;;;;;57.08;40.40;;;;;;;4.09;82.52;101076.72;2817832;84;21053;-78
2021/11/11 01:55:40;;;;;;;77.10;49.35;;;;;;;4.10;82.08;101067.91;2817802;84;21022;-80
2021/11/11 01:59:42;;;;;;;70.00;43.37;;;;;;;4.01;82.34;101058.61;2817456;84;21081;-78
2021/11/11 02:03:44;;;;;;;68.80;41.60;;;;;;;3.77;81.49;101033.72;2817238;84;21736;-77
2021/11/11 02:07:48;;;;;;;54.83;37.30;;;;;;;3.88;81.71;101053.45;2817722;84;21069;-81
2021/11/11 02:11:51;;;;;;;65.52;44.58;;;;;;;3.84;81.04;101048.80;2817390;84;20975;-75
2021/11/11 02:15:53;;;;;;;65.35;41.63;;;;;;;3.85;80.96;101049.19;2859545;83;21008;-77
2021/11/11 02:20:10;;;;;;;81.55;48.68;;;;;;;3.87;80.57;101055.25;2834388;83;21085;-76
2021/11/11 02:24:12;;;;;;;85.57;49.67;;;;;;;3.88;81.41;101053.01;2861074;83;21057;-79
2021/11/11 02:28:17;;;;;;;117.50;71.95;;;;;;;3.74;83.83;101048.32;2866093;83;21022;-74
2021/11/11 02:32:19;;;;;;;94.17;56.18;;;;;;;3.59;84.87;101048.94;2867307;83;21089;-76
2021/11/11 02:36:21;;;;;;;84.60;54.70;;;;;;;3.46;86.32;101040.21;2918459;81;21001;-76
2021/11/11 02:40:27;;;;;;;95.28;55.52;;;;;;;3.27;87.05;101031.73;2912799;81;21026;-80
2021/11/11 02:44:29;;;;;;;77.87;51.25;;;;;;;3.24;86.90;101032.30;2886203;82;21039;-78
2021/11/11 02:48:31;;;;;;;93.42;51.75;;;;;;;3.22;84.75;101031.51;2886520;82;21019;-75
2021/11/11 02:52:33;;;;;;;92.53;53.17;;;;;;;3.26;84.90;101031.34;2886868;82;21026;-82
2021/11/11 02:56:35;;;;;;;79.05;49.60;;;;;;;3.42;84.65;101034.68;2886445;82;21058;-75
2021/11/11 03:01:03;;;;;;;90.10;51.70;;;;;;;3.52;84.43;101029.44;2886399;81;21030;-81
2021/11/11 03:05:07;;;;;;;81.75;50.78;;;;;;;3.66;83.57;101022.76;2886223;82;21030;-79
2021/11/11 03:09:09;;;;;;;83.15;46.85;;;;;;;3.76;82.38;101012.27;2886172;82;21078;-78
2021/11/11 03:13:11;;;;;;;65.62;40.88;;;;;;;3.80;82.02;101017.79;2918847;81;21040;-77
2021/11/11 03:17:13;;;;;;;63.40;39.78;;;;;;;3.80;82.12;101031.39;2926775;81;20955;-79
2021/11/11 03:21:16;;;;;;;68.15;40.00;;;;;;;3.77;81.52;101020.55;2926841;81;21058;-78
2021/11/11 03:25:22;;;;;;;78.45;41.80;;;;;;;3.77;81.86;101031.08;2926431;81;21056;-74
2021/11/11 03:29:24;;;;;;;;;;;;;;;3.82;81.28;101026.92;2929528;81;21021;-75
2021/11/11 03:33:25;;;;;;;94.60;55.58;;;;;;;3.82;81.16;101029.55;2927103;81;20175;-74
2021/11/11 03:37:27;;;;;;;69.60;47.50;;;;;;;3.77;80.82;101032.84;2926872;80;21093;-79
2021/11/11 03:41:29;;;;;;;61.45;44.83;;;;;;;3.81;82.13;101033.11;2926796;81;21023;-75
2021/11/11 03:45:31;;;;;;;82.17;52.17;;;;;;;3.84;83.14;101035.64;2926744;81;20998;-78
2021/11/11 03:49:33;;;;;;;70.15;46.58;;;;;;;3.88;84.94;101024.05;2926777;81;21033;-77
2021/11/11 03:53:35;;;;;;;90.12;57.00;;;;;;;3.86;83.96;101024.58;2926331;81;21002;-75
2021/11/11 03:57:37;;;;;;;91.67;54.13;;;;;;;3.86;84.27;101021.47;2926627;81;21057;-78
2021/11/11 04:01:39;;;;;;;86.72;50.70;;;;;;;3.85;83.22;101017.61;2926436;81;20978;-77
2021/11/11 04:05:41;;;;;;;80.80;51.63;;;;;;;3.91;82.41;101026.55;2926578;81;21617;-81
2021/11/11 04:09:43;;;;;;;90.03;55.00;;;;;;;3.81;79.84;101036.61;2926625;81;20991;-79
2021/11/11 04:13:44;;;;;;;82.72;52.73;;;;;;;3.66;79.87;101037.23;2926406;81;21066;-80
2021/11/11 04:17:46;;;;;;;91.55;59.00;;;;;;;3.56;80.52;101035.44;2926449;81;21014;-77
2021/11/11 04:21:47;;;;;;;86.97;58.05;;;;;;;3.50;80.31;101031.27;2926424;81;21030;-78
2021/11/11 04:26:06;;;;;;;92.10;56.20;;;;;;;3.40;80.74;101034.73;2926611;81;21042;-81
2021/11/11 04:30:38;;;;;;;;;;;;;;;3.40;80.87;101047.88;2927356;80;21090;-77
2021/11/11 04:34:05;;;;;;;82.95;54.03;;;;;;;3.37;80.59;101041.91;2902367;81;20136;-77
2021/11/11 05:03:35;;;;;;;72.58;45.95;;;;;;;2.90;81.47;101021.33;2870152;83;21531;-80
2021/11/11 05:07:37;;;;;;;68.00;45.88;;;;;;;2.89;81.60;101023.55;2879579;81;21049;-80
2021/11/11 05:11:39;;;;;;;69.42;45.35;;;;;;;2.93;81.80;101023.83;2879014;81;21040;-79
2021/11/11 05:15:41;;;;;;;86.72;50.28;;;;;;;2.81;82.65;101016.43;2862401;83;20973;-83
2021/11/11 05:19:42;;;;;;;90.28;53.98;;;;;;;2.76;83.11;101018.38;2841109;83;21076;-83
2021/11/11 05:23:43;;;;;;;87.82;48.73;;;;;;;2.86;83.81;101006.59;2841037;83;21056;-79
2021/11/11 05:27:45;;;;;;;84.65;50.43;;;;;;;2.92;83.59;101011.61;2840711;83;21087;-79
2021/11/11 05:31:49;;;;;;;82.17;48.20;;;;;;;2.98;82.86;101017.96;2841258;83;21029;-82
2021/11/11 05:35:50;;;;;;;92.55;49.15;;;;;;;3.02;82.87;101013.90;2841121;83;21009;-79
2021/11/11 05:39:52;;;;;;;89.10;47.50;;;;;;;2.95;82.37;101008.89;2865092;81;21042;-82
2021/11/11 05:43:54;;;;;;;76.97;50.48;;;;;;;2.85;82.29;101000.50;2879512;82;21046;-80
2021/11/11 05:47:56;;;;;;;76.07;46.98;;;;;;;2.81;82.95;100983.11;2879535;82;21043;-81
2021/11/11 05:51:57;;;;;;;74.95;48.90;;;;;;;2.30;85.83;100977.12;2880495;82;21253;-72
2021/11/11 05:55:59;;;;;;;73.57;45.67;;;;;;;1.91;88.71;100979.80;2858032;82;21092;-75
2021/11/11 06:00:03;;;;;;;95.17;50.55;;;;;;;1.78;89.19;100987.23;2878411;82;21053;-74
2021/11/11 06:04:04;;;;;;;88.50;50.60;;;;;;;1.77;88.16;100999.95;2877577;82;21083;-73
2021/11/11 06:08:06;;;;;;;79.62;49.80;;;;;;;1.88;87.69;101003.52;2876423;82;21053;-81
2021/11/11 06:12:08;;;;;;;115.72;57.78;;;;;;;2.02;87.39;101008.30;2876451;82;21042;-81
2021/11/11 06:16:10;;;;;;;90.80;53.38;;;;;;;2.12;85.87;101020.17;2876472;82;21050;-83
2021/11/11 06:20:18;;;;;;;82.22;50.70;;;;;;;2.11;84.37;101016.30;2876376;82;21085;-81
2021/11/11 06:24:20;;;;;;;71.97;45.15;;;;;;;1.82;85.45;101032.13;2876481;81;21042;-81
2021/11/11 06:28:22;;;;;;;85.07;56.53;;;;;;;1.70;87.34;101034.71;2876453;82;21038;-80
2021/11/11 06:32:24;;;;;;;82.95;53.25;;;;;;;1.85;87.01;101041.65;2876483;82;20990;-80
2021/11/11 06:36:25;;;;;;;79.03;52.20;;;;;;;1.99;86.76;101035.95;2876433;82;21616;-80
2021/11/11 06:40:30;;;;;;;93.78;56.88;;;;;;;2.09;86.90;101045.22;2887890;82;21046;-78
2021/11/11 06:44:32;;;;;;;88.92;52.30;;;;;;;2.07;86.65;101046.20;2893483;82;20992;-80
2021/11/11 06:48:34;;;;;;;87.65;54.67;;;;;;;2.15;86.76;101045.47;2893213;82;21026;-79
2021/11/11 06:52:36;;;;;;;79.97;50.10;;;;;;;2.33;86.24;101045.74;2893214;82;21087;-80
2021/11/11 06:56:38;;;;;;;83.12;52.13;;;;;;;2.21;86.44;101062.78;2893253;82;20995;-80
2021/11/11 07:00:41;;;;;;;79.25;47.58;;;;;;;2.23;86.98;101048.67;2893312;82;20995;-81
2021/11/11 07:04:43;;;;;;;70.90;51.13;;;;;;;2.43;87.37;101047.98;2893202;82;21117;-78
2021/11/11 07:08:44;;;;;;;73.62;48.52;;;;;;;2.57;86.63;101033.03;2893228;82;21034;-81
2021/11/11 07:12:46;;;;;;;83.40;50.23;;;;;;;2.53;87.06;101031.88;2893357;82;21007;-80
2021/11/11 07:16:48;;;;;;;80.30;52.35;;;;;;;2.68;87.22;101037.89;2884915;82;21017;-81
2021/11/11 07:20:50;;;;;;;82.57;54.35;;;;;;;2.82;87.18;101029.49;2874925;81;21033;-81
2021/11/11 07:24:52;;;;;;;81.22;51.10;;;;;;;3.05;87.10;101029.55;2875244;80;20990;-81
2021/11/11 07:28:54;;;;;;;83.22;56.80;;;;;;;3.35;87.14;101030.59;2874688;82;20943;-78
2021/11/11 07:32:56;;;;;;;81.75;54.45;;;;;;;3.60;86.55;101019.08;2875050;82;21009;-78
2021/11/11 07:36:57;;;;;;;96.80;56.40;;;;;;;3.79;86.12;101018.71;2875197;82;21025;-81
2021/11/11 07:40:59;;;;;;;88.72;55.15;;;;;;;3.81;85.73;101023.89;2870959;82;21049;-82
2021/11/11 07:45:01;;;;;;;88.27;56.25;;;;;;;4.00;86.15;101031.89;2870456;83;21669;-80
2021/11/11 07:49:02;;;;;;;81.47;53.30;;;;;;;4.32;86.08;101034.05;2871215;83;21033;-83
2021/11/11 07:53:09;;;;;;;86.22;52.62;;;;;;;4.53;84.53;101036.22;2871263;83;20990;-81
2021/11/11 07:57:09;;;;;;;84.65;53.42;;;;;;;4.71;84.46;101035.36;2870675;83;21014;-75
2021/11/11 08:01:10;;;;;;;83.55;51.68;;;;;;;4.85;83.83;101031.25;2871474;83;21076;-77
2021/11/11 08:05:15;;;;;;;94.15;59.58;;;;;;;5.04;83.64;101031.72;2872515;81;21022;-79
2021/11/11 08:09:17;;;;;;;89.15;56.33;;;;;;;5.21;83.64;101041.46;2845393;83;21085;-75
2021/11/11 08:13:19;;;;;;;82.72;55.50;;;;;;;5.36;83.31;101044.70;2872798;81;20975;-78
2021/11/11 08:17:21;;;;;;;86.87;57.60;;;;;;;5.46;84.11;101043.80;2872968;83;21050;-80
2021/11/11 08:21:23;;;;;;;99.52;56.80;;;;;;;5.66;84.73;101038.88;2873087;81;21081;-74
2021/11/11 08:25:24;;;;;;;77.45;52.65;;;;;;;5.89;85.04;101035.55;2873223;83;21031;-77
2021/11/11 08:29:26;;;;;;;88.27;50.90;;;;;;;6.05;84.57;101043.58;2872797;83;21061;-78
2021/11/11 08:33:28;;;;;;;75.40;55.98;;;;;;;6.06;84.85;101043.13;2873200;83;20978;-74
2021/11/11 08:37:29;;;;;;;74.77;52.95;;;;;;;6.23;85.42;101045.77;2873795;83;21003;-79
2021/11/11 08:41:31;;;;;;;81.25;54.48;;;;;;;6.31;85.63;101046.69;2870877;82;21035;-75
2021/11/11 08:45:34;;;;;;;77.75;53.30;;;;;;;6.49;85.72;101040.06;2788592;85;21020;-72
2021/11/11 08:49:36;;;;;;;68.05;46.30;;;;;;;6.62;85.61;101027.88;2876164;83;21945;-75
2021/11/11 08:53:37;;;;;;;60.08;42.95;;;;;;;6.76;85.71;101036.39;2788709;85;21013;-78
2021/11/11 08:57:39;;;;;;;69.10;47.00;;;;;;;6.99;86.09;101047.05;2876462;83;21066;-76
2021/11/11 09:01:40;;;;;;;58.17;42.05;;;;;;;7.23;85.64;101039.17;2788761;85;21603;-78
2021/11/11 09:05:42;;;;;;;61.63;43.63;;;;;;;7.46;85.04;101047.61;2843458;83;21056;-77
2021/11/11 09:09:45;;;;;;;73.35;46.15;;;;;;;7.55;84.30;101041.78;2857341;83;20983;-79
2021/11/11 09:13:47;;;;;;;70.87;47.20;;;;;;;7.67;84.95;101055.65;2875567;83;21101;-75
2021/11/11 09:17:51;;;;;;;61.88;43.78;;;;;;;7.79;84.38;101049.27;2829556;84;21017;-75
2021/11/11 09:21:53;;;;;;;63.78;40.95;;;;;;;8.04;84.16;101046.50;2812231;84;21047;-75
2021/11/11 09:25:54;;;;;;;57.43;39.65;;;;;;;8.27;83.72;101043.82;2780157;85;21045;-75
2021/11/11 09:29:56;;;;;;;52.20;38.92;;;;;;;8.47;82.83;101039.95;2812205;84;21614;-69
2021/11/11 09:33:58;;;;;;;50.33;34.85;;;;;;;8.67;82.98;101040.55;2780221;85;21546;-76
2021/11/11 09:38:00;;;;;;;50.10;35.80;;;;;;;8.82;82.66;101030.32;2812250;84;21051;-75
2021/11/11 09:42:02;;;;;;;50.73;35.75;;;;;;;8.89;81.15;101034.77;2812094;82;21082;-74
2021/11/11 09:46:07;;;;;;;51.60;36.38;;;;;;;9.04;81.52;101032.08;2866730;82;21062;-74
2021/11/11 09:50:10;;;;;;;64.62;40.80;;;;;;;9.04;81.10;101030.75;2815677;83;21634;-75
2021/11/11 10:02:36;;;;;;;62.35;43.02;;;;;;;9.04;80.78;101041.36;2866479;82;21015;-75
2021/11/11 10:06:39;;;;;;;43.78;31.87;;;;;;;9.22;81.30;101034.88;2866567;83;21002;-72
2021/11/11 10:10:41;;;;;;;59.00;39.13;;;;;;;9.25;80.06;101025.42;2866501;83;20990;-70
2021/11/11 10:14:46;;;;;;;62.10;35.17;;;;;;;9.27;80.20;101036.79;2815565;84;21086;-71
2021/11/11 10:18:57;;;;;;;61.02;36.73;;;;;;;9.32;80.46;101026.34;2914423;80;21010;-72
2021/11/11 10:22:59;;;;;;;54.67;39.08;;;;;;;9.43;80.66;101024.69;2937970;81;21074;-70
2021/11/11 10:31:35;;;;;;;46.83;35.30;;;;;;;9.62;80.75;101031.91;2861974;82;21007;-72
2021/11/11 10:35:43;;;;;;;67.50;39.65;;;;;;;9.48;79.32;101032.36;2861790;83;21030;-72
2021/11/11 10:39:55;;;;;;;46.58;31.37;;;;;;;9.61;79.95;101036.39;2861769;82;20999;-72
2021/11/11 10:43:57;;;;;;;41.45;27.00;;;;;;;9.60;78.97;101029.83;2861559;82;21054;-72
2021/11/11 10:48:03;;;;;;;38.67;28.05;;;;;;;9.64;77.27;101031.36;2841960;83;21007;-71
2021/11/11 10:52:32;;;;;;;36.93;27.82;;;;;;;9.73;76.91;101025.42;2862389;82;21054;-71
2021/11/11 10:56:44;;;;;;;35.80;25.77;;;;;;;9.93;77.27;101025.43;2861985;82;21042;-71
2021/11/11 11:00:54;;;;;;;44.15;28.92;;;;;;;9.96;74.35;101016.37;2861535;82;20995;-72
2021/11/11 11:05:09;;;;;;;41.55;27.10;;;;;;;10.12;74.69;101011.72;2861751;82;20999;-73
2021/11/11 11:09:15;;;;;;;35.13;24.72;;;;;;;10.07;73.93;101011.19;2862006;82;20991;-71
2021/11/11 11:13:22;;;;;;;37.17;25.43;;;;;;;10.15;74.77;101002.20;2861860;83;21006;-70
2021/11/11 11:17:24;;;;;;;46.10;30.55;;;;;;;10.30;76.18;101012.75;2861939;82;21007;-69
2021/11/11 11:21:30;;;;;;;33.30;24.12;;;;;;;10.43;75.18;101004.33;2862089;82;21050;-70
2021/11/11 11:25:31;;;;;;;;;;;;;;;10.55;73.89;101010.59;2864679;82;21019;-72
2021/11/11 11:29:43;;;;;;;39.13;28.05;;;;;;;10.56;73.18;101012.76;2862091;82;20122;-71
2021/11/11 11:33:45;;;;;;;36.35;27.73;;;;;;;10.66;74.35;101008.50;2851517;81;21069;-71
2021/11/11 11:37:52;;;;;;;36.10;25.02;;;;;;;10.73;74.01;101008.06;2904785;81;20975;-71
2021/11/11 11:41:55;;;;;;;41.28;29.07;;;;;;;10.71;73.04;100998.38;2913358;79;21034;-71
2021/11/11 11:46:16;;;;;;;43.75;29.67;;;;;;;10.63;74.34;100996.75;2896147;81;21047;-72
2021/11/11 11:50:26;;;;;;;41.05;28.92;;;;;;;10.76;74.67;100994.53;2899211;81;21026;-71
2021/11/11 11:54:37;;;;;;;48.25;30.05;;;;;;;10.90;74.40;100993.06;2910630;80;21008;-73
2021/11/11 11:58:41;;;;;;;32.38;24.35;;;;;;;10.96;73.75;100985.96;2890308;81;21067;-74
2021/11/11 12:07:55;;;;;;;41.23;28.73;;;;;;;11.02;74.97;100982.01;2911994;81;21035;-73
2021/11/11 12:41:44;;;;;;;37.75;27.70;;;;;;;11.54;72.69;100949.82;2865432;81;21435;-72
2021/11/11 12:45:46;;;;;;;41.60;30.17;;;;;;;11.56;72.11;100951.39;2877199;82;20991;-71
2021/11/11 12:49:48;;;;;;;37.48;28.83;;;;;;;11.52;71.48;100950.42;2872671;80;21041;-70
2021/11/11 12:53:52;;;;;;;38.92;30.80;;;;;;;11.51;72.05;100950.89;2881182;82;20982;-70
2021/11/11 12:58:02;;;;;;;38.13;28.25;;;;;;;11.57;72.53;100947.75;2829425;82;21013;-70
2021/11/11 13:02:07;;;;;;;33.65;24.90;;;;;;;11.64;72.59;100960.13;2826032;84;21030;-74
2021/11/11 13:06:10;;;;;;;39.98;28.42;;;;;;;11.67;72.18;100961.73;2840753;82;20975;-75
2021/11/11 13:10:19;;;;;;;41.20;29.30;;;;;;;11.68;71.75;100967.42;2850433;82;21033;-72
2021/11/11 13:14:30;;;;;;;41.30;28.95;;;;;;;11.70;72.19;100966.82;2857434;83;21033;-70
2021/11/11 13:18:52;;;;;;;46.60;30.62;;;;;;;11.71;71.64;100969.38;2840711;82;21085;-73
2021/11/11 16:26:42;;;;;;;58.13;38.38;;;;;;;7.77;79.51;100979.66;2911573;80;21053;-71
2021/11/11 16:30:46;;;;;;;57.25;37.48;;;;;;;7.64;81.11;100990.09;2940777;80;21050;-70
2021/11/11 16:34:47;;;;;;;52.53;34.00;;;;;;;7.54;81.05;100999.91;2942416;80;21054;-73
2021/11/11 16:38:51;;;;;;;50.48;36.60;;;;;;;7.53;80.88;100999.52;2951827;80;21053;-73
2021/11/11 16:42:53;;;;;;;51.60;35.05;;;;;;;7.58;80.22;100996.13;2948983;80;21070;-71
2021/11/11 16:46:54;;;;;;;61.68;37.13;;;;;;;7.45;80.42;100987.67;2877608;82;20982;-75
2021/11/11 16:50:57;;;;;;;60.90;40.88;;;;;;;7.36;80.38;100993.86;2869645;82;21066;-73
2021/11/11 16:54:59;;;;;;;57.88;38.20;;;;;;;7.22;81.50;100993.32;2855727;83;21061;-74
2021/11/11 16:59:02;;;;;;;61.88;41.55;;;;;;;7.11;81.38;100999.22;2834771;83;20995;-73
2021/11/11 17:03:05;;;;;;;62.17;41.85;;;;;;;7.10;81.45;100998.84;2874257;82;21040;-71
2021/11/11 17:07:07;;;;;;;72.55;44.98;;;;;;;7.17;81.13;101004.64;2939884;80;21077;-72
2021/11/11 17:11:08;;;;;;;66.55;44.20;;;;;;;7.18;81.11;101011.64;2848995;83;21050;-72
2021/11/11 17:15:13;;;;;;;61.25;43.15;;;;;;;7.14;81.11;101014.91;2830368;83;21023;-72
2021/11/11 17:19:14;;;;;;;58.15;39.45;;;;;;;7.10;81.47;101011.23;2845689;83;21062;-73
2021/11/11 17:23:21;;;;;;;56.65;40.25;;;;;;;7.07;81.72;101014.89;2844180;83;21121;-72
2021/11/11 17:27:33;;;;;;;65.12;42.83;;;;;;;7.04;81.34;101024.77;2851181;83;21042;-71
2021/11/11 17:31:31;;;;;;;60.23;42.62;;;;;;;6.97;81.51;101027.77;2849299;83;21057;-75
2021/11/11 17:35:34;;;;;;;63.38;40.60;;;;;;;6.93;81.31;101033.30;2857538;83;20983;-75
2021/11/11 17:39:36;;;;;;;55.33;37.53;;;;;;;6.94;80.92;101031.04;2820363;83;21020;-74
2021/11/11 17:43:40;;;;;;;57.40;38.42;;;;;;;6.89;80.06;101027.34;2878791;82;21047;-78
2021/11/11 17:47:45;;;;;;;68.42;44.60;;;;;;;6.80;80.09;101027.83;2903053;81;21026;-79
2021/11/11 17:55:51;;;;;;;67.62;41.73;;;;;;;6.64;80.71;101029.97;2894397;81;20997;-79
2021/11/11 17:59:52;;;;;;;66.72;42.15;;;;;;;6.59;80.88;101037.30;2908620;80;21029;-79
2021/11/11 18:03:55;;;;;;;49.35;37.35;;;;;;;6.49;81.02;101040.90;2898914;81;21034;-78
2021/11/11 18:08:06;;;;;;;55.00;42.93;;;;;;;6.40;81.46;101042.23;2899270;81;20986;-78
2021/11/11 18:12:05;;;;;;;73.60;45.63;;;;;;;6.34;81.58;101043.02;2930438;80;21001;-78
2021/11/11 18:16:15;;;;;;;67.92;44.77;;;;;;;6.27;81.82;101044.66;2918216;80;21682;-80
2021/11/11 18:20:13;;;;;;;61.00;38.98;;;;;;;6.26;81.72;101040.31;2874529;82;20998;-78
2021/11/11 18:24:15;;;;;;;64.67;40.12;;;;;;;6.27;81.55;101045.11;2868439;83;21046;-75
2021/11/11 18:28:25;;;;;;;60.85;40.35;;;;;;;6.29;81.46;101049.40;2878483;81;21022;-73
2021/11/11 18:32:27;;;;;;;59.67;40.43;;;;;;;6.30;81.17;101048.95;2888176;81;21057;-78
2021/11/11 18:36:34;;;;;;;54.50;35.95;;;;;;;6.27;81.08;101060.97;2917332;81;20990;-78
2021/11/11 18:40:33;;;;;;;56.13;36.98;;;;;;;6.19;81.19;101054.78;2928453;80;21002;-78
2021/11/11 18:44:41;;;;;;;61.88;41.53;;;;;;;6.13;80.78;101052.44;2913015;81;21744;-73
2021/11/11 18:48:44;;;;;;;64.97;43.83;;;;;;;6.09;80.92;101054.85;2899084;82;21028;-75
2021/11/11 18:52:46;;;;;;;58.33;37.98;;;;;;;6.05;80.68;101056.78;2908727;80;21030;-71
2021/11/11 18:56:47;;;;;;;54.63;35.60;;;;;;;6.00;80.22;101058.78;2945328;80;21021;-74
2021/11/11 19:00:49;;;;;;;66.20;40.83;;;;;;;5.90;79.89;101061.51;2931924;80;21003;-74
2021/11/11 19:04:58;;;;;;;61.77;41.68;;;;;;;5.83;80.52;101070.20;2940801;80;20991;-79
2021/11/11 19:13:10;;;;;;;72.60;46.08;;;;;;;5.71;81.56;101072.49;2930906;80;21054;-78
2021/11/11 19:17:22;;;;;;;71.12;46.20;;;;;;;5.73;82.12;101081.67;2894816;80;20982;-77
2021/11/11 19:21:18;;;;;;;68.17;43.60;;;;;;;5.76;82.20;101070.95;2828728;82;21061;-75
2021/11/11 19:25:20;;;;;;;76.30;48.60;;;;;;;5.82;82.30;101071.97;2901660;82;21060;-75
2021/11/11 19:29:24;;;;;;;75.87;47.05;;;;;;;5.84;82.25;101072.74;2928310;80;21022;-74
2021/11/11 19:33:25;;;;;;;75.97;48.15;;;;;;;5.86;81.48;101068.23;2941259;80;21045;-75
2021/11/11 19:54:22;;;;;;;82.60;50.10;;;;;;;5.39;83.14;101081.97;2854455;83;21082;-78
2021/11/11 19:58:33;;;;;;;79.77;49.23;;;;;;;5.32;82.83;101080.56;2846893;83;21062;-77
2021/11/11 20:10:47;;;;;;;80.80;49.70;;;;;;;5.27;82.20;101072.38;2839865;83;21502;-76
2021/11/11 20:57:46;;;;;;;82.17;48.55;;;;;;;5.01;81.04;101076.22;2879104;82;21006;-82
2021/11/11 21:02:05;;;;;;;65.67;43.25;;;;;;;4.74;80.81;101071.76;2926769;81;22183;-80
2021/11/11 21:10:45;;;;;;;80.55;53.52;;;;;;;4.67;83.08;101081.23;2927660;81;21073;-81
2021/11/11 21:18:53;;;;;;;78.80;47.90;;;;;;;4.77;82.99;101075.57;2931520;81;21058;-80
2021/11/11 21:22:49;;;;;;;88.85;53.80;;;;;;;4.77;81.66;101073.77;2911892;81;21019;-78
2021/11/11 21:26:52;;;;;;;92.30;52.23;;;;;;;4.71;81.32;101069.62;2937004;80;21070;-75
2021/11/11 21:30:53;;;;;;;108.75;62.93;;;;;;;4.48;81.58;101075.06;2936210;80;20987;-77
2021/11/11 21:39:11;;;;;;;115.77;68.45;;;;;;;4.04;82.68;101072.95;2939182;81;21025;-77
2021/11/11 21:43:10;;;;;;;109.25;64.27;;;;;;;3.99;83.01;101067.87;2940406;80;21070;-75
2021/11/11 21:47:12;;;;;;;102.90;61.70;;;;;;;3.93;82.70;101060.25;2946392;80;21074;-75
2021/11/11 21:51:14;;;;;;;96.20;61.92;;;;;;;3.85;83.39;101061.03;2941533;80;20986;-76
2021/11/11 21:55:25;;;;;;;84.72;56.65;;;;;;;3.78;83.28;101061.74;2920734;80;21007;-76
2021/11/11 22:00:17;;;;;;;92.47;56.83;;;;;;;3.83;84.82;101065.03;2929842;80;20998;-75
2021/11/11 22:08:15;;;;;;;87.47;54.08;;;;;;;4.02;84.33;101057.69;2925006;80;21037;-77
2021/11/11 22:25:12;;;;;;;80.20;50.98;;;;;;;4.13;83.36;101055.47;2943105;80;21011;-76
2021/11/11 22:33:28;;;;;;;76.33;45.25;;;;;;;4.24;83.54;101064.67;2834227;83;21116;-79
2021/11/11 22:37:26;;;;;;;81.45;45.63;;;;;;;4.26;82.77;101061.52;2936154;80;21109;-77
2021/11/11 22:41:32;;;;;;;72.17;46.10;;;;;;;4.25;82.51;101065.06;2952659;80;21038;-78
2021/11/11 22:45:33;;;;;;;70.32;43.28;;;;;;;4.21;82.24;101060.86;2854359;81;21063;-79
2021/11/11 22:49:35;;;;;;;67.87;43.08;;;;;;;4.14;82.15;101048.41;2839260;83;21014;-79
2021/11/11 22:57:47;;;;;;;80.90;49.95;;;;;;;4.05;81.89;101060.19;2820748;83;21098;-76
2021/11/11 23:06:40;;;;;;;98.20;57.33;;;;;;;4.14;83.32;101055.86;2827292;83;21391;-79
2021/11/11 23:19:13;;;;;;;86.00;55.78;;;;;;;4.27;83.74;101047.42;2834433;82;21053;-75
2021/11/11 23:35:40;;;;;;;97.75;61.90;;;;;;;4.39;82.62;101040.31;2851117;82;21039;-80
2021/11/11 23:39:42;;;;;;;85.87;55.95;;;;;;;4.34;83.37;101027.81;2829914;82;21263;-76
2021/11/11 23:43:45;;;;;;;86.28;53.33;;;;;;;4.33;83.30;101030.05;2830101;82;21062;-79
